PDT,Max TemperatureF,Mean TemperatureF,Min TemperatureF,Max Dew PointF,MeanDew PointF,Min DewpointF,Max Humidity, Mean Humidity, Min Humidity, Max Sea Level PressureIn, Mean Sea Level PressureIn, Min Sea Level PressureIn, Max VisibilityMiles, Mean VisibilityMiles, Min VisibilityMiles, Max Wind SpeedMPH, Mean Wind SpeedMPH, Max Gust SpeedMPH,PrecipitationIn, CloudCover, Events, WindDirDegrees
2013-7-1,95,77,58,59,56,52,68,44,26,29.99,29.93,29.84,10,10,10,13,9,16,0.00,0,,294
2013-7-2,97,79,61,59,52,45,53,32,16,29.95,29.88,29.81,10,10,10,20,9,33,0.00,0,,300
2013-7-3,97,80,63,48,39,27,41,24,11,29.99,29.91,29.83,10,10,10,24,17,29,0.00,0,,298
2013-7-4,82,69,55,42,37,32,40,26,15,29.89,29.84,29.78,10,10,10,31,17,37,0.00,0,,297
2013-7-5,79,64,49,44,42,39,46,35,22,29.87,29.82,29.75,10,10,10,25,15,32,0.00,0,,303
2013-7-6,82,65,48,47,44,38,56,36,17,29.89,29.82,29.74,10,10,10,15,10,20,0.00,0,,312
2013-7-7,84,67,50,54,49,41,67,41,19,29.86,29.80,29.72,10,10,10,20,8,,0.00,1,,318
2013-7-8,82,69,55,53,47,37,57,37,19,30.00,29.91,29.83,10,10,10,14,10,,T,0,,304
2013-7-9,86,67,48,53,48,41,63,38,18,30.08,29.99,29.89,10,10,10,13,7,18,0.00,0,,321
2013-7-10,93,80,68,50,42,33,52,29,13,29.91,29.82,29.73,10,10,10,20,10,25,0.00,0,,291
2013-7-11,82,67,51,46,35,26,56,29,13,29.88,29.84,29.80,10,10,10,23,14,29,0.00,0,,306
2013-7-12,79,63,47,40,33,26,47,30,18,29.98,29.90,29.88,10,10,10,21,12,28,0.00,1,,304
2013-7-13,75,62,48,40,37,30,53,33,17,30.11,30.05,30.00,10,10,10,14,9,,0.00,0,,355
2013-7-14,82,62,41,45,37,26,60,30,10,30.07,29.97,29.83,10,10,10,14,7,,0.00,0,,304
2013-7-15,82,63,43,40,36,29,40,26,13,30.00,29.93,29.87,10,10,10,21,9,29,0.00,0,,315
2013-7-16,88,69,49,44,39,30,48,27,11,29.98,29.89,29.78,10,10,10,15,8,25,0.00,0,Rain,285
2013-7-17,88,75,62,59,50,42,66,38,21,30.02,29.92,29.81,10,10,10,16,9,21,0.00,2,Rain,293
2013-7-18,88,70,52,51,46,40,49,32,16,30.11,30.02,29.93,10,10,10,13,9,,0.00,0,,310
2013-7-19,91,72,53,48,39,23,50,28,7,30.06,29.95,29.83,10,10,10,16,10,25,0.00,0,,289
2013-7-20,93,73,53,49,38,25,46,25,7,29.91,29.83,29.74,10,10,10,23,11,25,0.00,0,,296
2013-7-21,93,70,47,42,38,32,35,22,10,29.79,29.74,29.66,10,10,10,24,12,31,0.00,0,,309
2013-7-22,91,71,51,50,42,32,41,25,10,29.87,29.80,29.74,10,10,10,23,14,22,0.00,0,,303
2013-7-23,93,72,50,52,47,37,49,31,13,29.96,29.89,29.80,10,10,10,22,11,,0.00,0,,289
2013-7-24,99,84,68,50,39,16,49,28,6,29.93,29.88,29.81,10,10,10,18,8,23,0.00,0,,298
2013-7-25,100,84,68,50,39,21,47,27,6,29.97,29.91,29.86,10,10,10,20,10,25,0.00,0,,297
2013-7-26,93,71,49,44,35,24,40,21,8,30.01,29.94,29.87,10,10,10,22,11,30,0.00,0,,287
2013-7-27,90,80,69,42,35,28,35,23,11,29.98,29.89,29.79,10,10,10,26,15,31,0.00,0,,291
2013-7-28,84,67,50,46,38,30,43,28,12,29.86,29.81,29.73,10,10,10,20,12,,0.00,0,,304
2013-7-29,84,64,44,49,45,37,58,37,16,29.89,29.85,29.80,10,9,3,15,10,20,0.00,2,,322
2013-7-30,88,71,53,51,44,34,56,34,13,30.03,29.98,29.91,10,10,10,10,7,,0.00,0,,295
2013-7-31,86,76,65,51,48,43,58,42,26,30.06,29.99,29.91,10,10,10,21,8,28,T,1,Rain,297